• Join FlightAware (Why Join?)
  • Login
  • US Flag 
Rudolph Flight #1: Arrived! 
05:36AM EST


 

Airport Tracker/Info


-or-


 

Live Flight TrackerFlight Track Log ✈ FIN666 ✈ 28-Dec-2013 ✈ EKCH / CPH - EFHK / HEL

Flight Track Log - Related Links

Times and Time Zones

All times are in EST time to prevent confusion due to time zone crossing. See the FIN666 flight status page for this flight to view local times or setup timezone preferences in your user account.

Time Position Orientation Groundspeed Altitude Reporting Facility
EST Latitude Longitude Course Direction KTS MPH feet Rate Location/Type
07:24AM 55.8592 13.1550 49° Northeast  Level Estimated
07:25AM 55.9392 13.3227 50° Northeast  Level Estimated
07:26AM 56.0189 13.4911 50° Northeast  Level Estimated
07:27AM 56.1023 13.6685 50° Northeast  Level Estimated
07:28AM 56.1854 13.8465 50° Northeast  Level Estimated
07:29AM 56.2683 14.0254 50° Northeast  Level Estimated
07:30AM 56.3508 14.2050 50° Northeast  Level Estimated
07:31AM 56.4332 14.3854 50° Northeast  Level Estimated
07:32AM 56.5153 14.5666 51° Northeast  Level Estimated
07:33AM 56.5970 14.7486 51° Northeast  Level Estimated
07:34AM 56.6786 14.9313 51° Northeast  Level Estimated
07:35AM 56.7599 15.1149 51° Northeast  Level Estimated
07:36AM 56.8409 15.2992 51° Northeast  Level Estimated
07:37AM 56.9216 15.4844 51° Northeast  Level Estimated
07:38AM 57.0020 15.6704 51° Northeast  Level Estimated
07:39AM 57.0822 15.8571 52° Northeast  Level Estimated
07:40AM 57.1621 16.0447 52° Northeast  Level Estimated
07:41AM 57.2417 16.2330 52° Northeast  Level Estimated
07:42AM 57.3210 16.4222 52° Northeast  Level Estimated
07:43AM 57.4001 16.6122 52° Northeast  Level Estimated
07:44AM 57.4788 16.8030 52° Northeast  Level Estimated
07:45AM 57.5573 16.9947 53° Northeast  Level Estimated
07:46AM 57.6355 17.1871 53° Northeast  Level Estimated
07:47AM 57.7134 17.3804 53° Northeast  Level Estimated
07:48AM 57.7910 17.5746 53° Northeast  Level Estimated
07:49AM 57.8682 17.7695 53° Northeast  Level Estimated
07:50AM 57.9452 17.9653 53° Northeast  Level Estimated
07:51AM 58.0219 18.1620 54° Northeast  Level Estimated
07:52AM 58.0983 18.3595 54° Northeast  Level Estimated
07:53AM 58.1744 18.5578 54° Northeast  Level Estimated
07:54AM 58.2501 18.7570 54° Northeast  Level Estimated
07:55AM 58.3256 18.9570 54° Northeast  Level Estimated
07:56AM 58.4007 19.1579 54° Northeast  Level Estimated
07:57AM 58.4756 19.3596 55° Northeast  Level Estimated
07:58AM 58.5501 19.5622 55° Northeast  Level Estimated
07:59AM 58.6243 19.7657 55° Northeast  Level Estimated
08:00AM 58.6981 19.9700 55° Northeast  Level Estimated
08:01AM 58.7717 20.1752 55° Northeast  Level Estimated
08:02AM 58.8449 20.3813 55° Northeast  Level Estimated
08:03AM 58.9178 20.5882 56° Northeast  Level Estimated
08:04AM 58.9903 20.7960 56° Northeast  Level Estimated
08:05AM 59.0625 21.0047 56° Northeast  Level Estimated
08:06AM 59.1333 21.2109 56° Northeast  Level Estimated
08:07AM 59.2037 21.4180 56° Northeast  Level Estimated
08:08AM 59.2738 21.6259 57° Northeast  Level Estimated
08:09AM 59.3435 21.8347 57° Northeast  Level Estimated
08:10AM 59.4129 22.0444 57° Northeast  Level Estimated
08:11AM 59.4820 22.2549 57° Northeast  Level Estimated
08:12AM 59.5507 22.4663 57° Northeast  Level Estimated
08:13AM 59.6191 22.6785 57° Northeast  Level Estimated
08:14AM 59.6872 22.8916 58° Northeast  Level Estimated
08:15AM 59.7549 23.1055 58° Northeast  Level Estimated
08:16AM 59.8223 23.3204 58° Northeast  Level Estimated
08:17AM 59.8893 23.5361 58° Northeast  Level Estimated
08:18AM 59.9559 23.7526 58° Northeast  Level Estimated
08:19AM 60.0222 23.9700 59° Northeast  Level Estimated
08:20AM 60.0881 24.1883 59° Northeast  Level Estimated
08:21AM 60.1537 24.4075 59° Northeast  Level Estimated
08:22AM 60.2189 24.6276 59° Northeast  Level Estimated
08:23AM 60.2838 24.8485 59° Northeast  Level Estimated
08:24AM 60.3172 24.9633 59° Northeast  Level Estimated
08:25AM 60.3172 24.9633 37° Northeast  Level Estimated
08:26AM 60.3172 24.9633 37° Northeast  Level Estimated
08:27AM 60.3172 24.9633 37° Northeast  Level Estimated
08:28AM 60.3172 24.9633 37° Northeast  Level Estimated
08:29AM 60.3172 24.9633 37° Northeast  Level Estimated
08:30AM 60.3172 24.9633 37° Northeast  Level Estimated
08:31AM 60.3172 24.9633 37° Northeast  Level Estimated
08:32AM 60.3172 24.9633 37° Northeast  Level Estimated
08:33AM 60.3172 24.9633 37° Northeast  Level Estimated
08:34AM 60.3172 24.9633 37° Northeast  Level Estimated
08:35AM 60.3172 24.9633 37° Northeast  Level Estimated
08:36AM 60.3172 24.9633 37° Northeast  Level Estimated
08:37AM 60.3172 24.9633 37° Northeast  Level Estimated